Airfield :
LOGIN :

Register | Disclaimer

   EN    FR    IT 

 










Legend :    VFR   Marginal VFR   IFR   Intensive IFR   Very Intensive IFR
Visi :
Ceiling :
>= 8 km
>= 3000ft
5 to 8 km
1000 to 3000 ft
1500m to 5 km
500 to 1000 ft
800 to 1500m
200 to 500 ft
< 800m
< 200 ft
Symbols :   Thunderstorms  Fog  Heavy snow  Heavy precipitations  Wind > 20 kt
SIGMETs :     Misc.  Thunderstorms  Icing  Turbulence  Mountain Waves  Volcanic Ashes







- Airport Elevation : 778 ft
- IATA code : BRQ


LKTB - Brno-Turany

CURRENT METAR :
  • 162000Z 00000KT CAVOK 02/M01 Q1010 NOSIG

EXPIRED METARs :
  • 161930Z VRB01KT CAVOK 03/M01 Q1010 NOSIG
  • 161900Z 18004KT CAVOK 02/M01 Q1010 NOSIG
  • 161830Z VRB02KT CAVOK 02/M01 Q1010 NOSIG
  • 161800Z 20004KT CAVOK 03/M01 Q1010 NOSIG
  • 161730Z 21005KT 170V240 CAVOK 03/M01 Q1011 NOSIG

TAF TAF LKTB
Valid from the 16 at 18:00 until the 18 at 00:00 UTC


161700Z 1618/1800 23006KT 9999 FEW045
BECMG 1618/1620 VRB02KT
TEMPO 1700/1708 3000 BR SCT014
BECMG 1705/1707 12004KT
BECMG 1709/1712 21010KT
No reported NOTAMs for that airfield.



MET'MAP, your aeronautical weather chart ! - Copyright ORBIFLY December 2007 - Disclaimer

ORBIFLY MET'MAP TEAM :

Programming & Development : Alexandra Zaïnal
Concept & Development : Baudouin d'Aumeries
Co-Development & Prog : Marc-Olivier Méhu
Technical & hardware support : Manuel Goepfert

Contact : metmap@orbifly.com




SOURCES & CREDITS :

   NOAA